Time;durP1;ratioP1;P1;durP2;ratioP2;P2;SDS_P1;SDS_P2;PMS_P1;PMS_P2;Temp;Humidity;BMP_temperature;BMP_pressure;BME280_temperature;BME280_humidity;BME280_pressure;Samples;Min_cycle;Max_cycle;Signal;HPM_P1;HPM_P2
2022/05/29 00:02:14;;;;;;;9.30;2.42;;;;;;;14.54;45.92;101684.16;5072483;28;20036;-63
2022/05/29 00:04:41;;;;;;;6.43;2.10;;;;;;;14.56;45.95;101684.91;5072438;28;20041;-63
2022/05/29 00:07:14;;;;;;;4.38;2.20;;;;;;;14.57;46.04;101685.78;5072480;28;20051;-63
2022/05/29 00:09:44;;;;;;;5.32;2.17;;;;;;;14.58;46.03;101682.09;5072870;28;20139;-63
2022/05/29 00:12:11;;;;;;;4.57;2.35;;;;;;;14.55;46.23;101675.09;5072393;28;20044;-63
2022/05/29 00:14:43;;;;;;;7.68;2.17;;;;;;;14.55;46.18;101683.19;5072137;28;20037;-62
2022/05/29 00:17:10;;;;;;;5.65;2.30;;;;;;;14.54;46.19;101675.19;5054408;28;20033;-62
2022/05/29 00:19:37;;;;;;;7.93;2.45;;;;;;;14.53;46.33;101679.75;5072161;28;20409;-63
2022/05/29 00:22:04;;;;;;;4.72;2.17;;;;;;;14.51;46.58;101681.69;5068429;28;20033;-63
2022/05/29 00:24:35;;;;;;;4.97;2.03;;;;;;;14.51;46.51;101675.44;5053826;28;20406;-63
2022/05/29 00:27:03;;;;;;;10.02;2.20;;;;;;;14.46;46.87;101667.66;5066374;28;20029;-62
2022/05/29 00:29:29;;;;;;;7.85;2.25;;;;;;;14.40;46.62;101665.38;5070370;28;20119;-62
2022/05/29 00:31:56;;;;;;;5.57;2.17;;;;;;;14.35;46.66;101661.28;5070904;28;20040;-62
2022/05/29 00:34:24;;;;;;;5.40;2.30;;;;;;;14.26;46.77;101654.72;5051234;28;20043;-62
2022/05/29 00:36:51;;;;;;;4.70;2.15;;;;;;;14.23;46.97;101654.94;5066332;28;20431;-63
2022/05/29 00:39:17;;;;;;;6.38;2.58;;;;;;;14.24;47.06;101652.13;5067179;28;20041;-62
2022/05/29 00:41:45;;;;;;;8.35;2.42;;;;;;;14.24;47.26;101653.97;5071325;28;20086;-62
2022/05/29 00:44:24;;;;;;;8.63;2.88;;;;;;;14.18;47.53;101641.78;5068504;28;20085;-63
2022/05/29 00:46:53;;;;;;;6.90;2.63;;;;;;;14.17;47.53;101650.88;5069597;28;20040;-63
2022/05/29 00:49:34;;;;;;;8.07;2.33;;;;;;;14.14;47.71;101644.81;5068772;28;20033;-63
2022/05/29 00:52:05;;;;;;;6.68;2.40;;;;;;;14.13;47.54;101643.97;5045408;28;20426;-62
2022/05/29 00:54:37;;;;;;;6.65;2.95;;;;;;;14.13;47.75;101638.56;5048682;28;20119;-61
2022/05/29 00:57:04;;;;;;;8.57;3.05;;;;;;;14.14;47.84;101634.03;5046392;28;20565;-61
2022/05/29 00:59:33;;;;;;;8.15;3.28;;;;;;;14.14;47.87;101640.28;5052055;28;20040;-61
2022/05/29 01:02:02;;;;;;;9.38;2.97;;;;;;;14.16;48.18;101637.47;5046911;28;20045;-61
2022/05/29 01:04:55;;;;;;;7.57;3.20;;;;;;;14.13;48.17;101635.00;5051692;28;20044;-61
2022/05/29 01:07:23;;;;;;;8.05;3.17;;;;;;;14.09;47.79;101634.31;5049067;28;20415;-61
2022/05/29 01:09:51;;;;;;;10.25;3.30;;;;;;;14.03;48.19;101625.81;5051196;28;20052;-61
2022/05/29 01:13:00;;;;;;;8.98;3.22;;;;;;;13.99;48.19;101620.63;5052091;28;20448;-62
2022/05/29 01:15:49;;;;;;;12.60;4.13;;;;;;;14.03;48.34;101623.09;5048412;28;20053;-61
2022/05/29 01:18:19;;;;;;;9.20;4.07;;;;;;;14.04;48.42;101623.00;5045580;28;20044;-62
2022/05/29 01:21:23;;;;;;;8.27;3.38;;;;;;;14.01;48.38;101617.81;5051936;28;20045;-61
2022/05/29 01:24:11;;;;;;;9.27;3.13;;;;;;;14.00;48.44;101616.09;5051560;28;20048;-61
2022/05/29 01:26:58;;;;;;;13.02;3.60;;;;;;;14.00;48.35;101619.66;5051240;28;20045;-61
2022/05/29 01:29:36;;;;;;;6.68;2.92;;;;;;;13.99;48.75;101617.94;5050485;28;20045;-62
2022/05/29 01:32:11;;;;;;;6.05;3.45;;;;;;;14.00;48.57;101613.38;5039796;28;20478;-61
2022/05/29 01:35:00;;;;;;;6.97;3.42;;;;;;;14.00;48.67;101610.69;5051837;28;20056;-61
2022/05/29 01:37:36;;;;;;;14.02;3.90;;;;;;;14.04;48.99;101606.78;5046248;28;20065;-62
2022/05/29 01:40:02;;;;;;;11.73;3.90;;;;;;;14.08;49.49;101605.59;5039194;28;20057;-62
2022/05/29 01:42:41;;;;;;;7.78;3.78;;;;;;;14.12;49.21;101609.81;5049854;28;20407;-64
2022/05/29 01:45:25;;;;;;;9.40;3.65;;;;;;;14.18;49.27;101608.50;5051444;28;20421;-62
2022/05/29 01:48:10;;;;;;;9.27;3.72;;;;;;;14.21;49.23;101603.75;5051802;28;20037;-62
2022/05/29 01:50:43;;;;;;;11.23;3.95;;;;;;;14.24;48.99;101600.81;5051780;28;20048;-62
2022/05/29 01:53:19;;;;;;;9.88;3.65;;;;;;;14.29;49.48;101601.31;5049840;28;20048;-62
2022/05/29 01:55:51;;;;;;;11.63;3.75;;;;;;;14.32;49.43;101601.09;5051420;28;20572;-62
2022/05/29 01:58:35;;;;;;;7.40;3.45;;;;;;;14.33;49.53;101599.25;5050694;28;20037;-62
2022/05/29 02:01:04;;;;;;;6.28;3.72;;;;;;;14.36;49.37;101596.31;5066696;28;20102;-62
2022/05/29 02:03:37;;;;;;;8.77;3.60;;;;;;;14.38;49.36;101602.47;5051243;28;20047;-62
2022/05/29 02:06:25;;;;;;;9.38;4.00;;;;;;;14.39;49.38;101595.22;5052027;28;20047;-63
2022/05/29 02:08:55;;;;;;;5.72;2.90;;;;;;;14.40;49.19;101595.13;5037861;28;20049;-62
2022/05/29 02:11:27;;;;;;;9.00;3.40;;;;;;;14.41;49.42;101588.72;5052351;28;20040;-62
2022/05/29 02:14:09;;;;;;;7.50;3.33;;;;;;;14.39;49.66;101584.41;5043594;28;20037;-62
2022/05/29 02:16:40;;;;;;;7.00;3.28;;;;;;;14.41;49.58;101586.03;5032061;28;20429;-62
2022/05/29 02:19:16;;;;;;;10.65;3.35;;;;;;;14.45;49.79;101589.41;5049952;28;20072;-61
2022/05/29 02:21:42;;;;;;;;;;;;;;;14.44;49.38;101576.88;5051685;28;20226;-62
2022/05/29 02:24:16;;;;;;;6.30;3.20;;;;;;;14.47;49.43;101577.50;5049999;28;20038;-61
2022/05/29 02:26:54;;;;;;;10.43;3.80;;;;;;;14.44;49.42;101572.31;5051788;28;20056;-62
2022/05/29 02:29:20;;;;;;;9.18;3.80;;;;;;;14.46;49.48;101574.91;5050603;28;20037;-62
2022/05/29 02:31:50;;;;;;;8.18;3.47;;;;;;;14.47;49.67;101577.50;5050367;28;20041;-62
2022/05/29 02:34:43;;;;;;;11.48;3.92;;;;;;;14.46;49.66;101567.66;5049384;28;20045;-63
2022/05/29 02:37:35;;;;;;;16.02;4.65;;;;;;;14.46;49.66;101564.97;5036157;28;20039;-62
2022/05/29 02:40:12;;;;;;;9.02;3.55;;;;;;;14.48;49.64;101562.13;5050628;28;20056;-62
2022/05/29 02:43:06;;;;;;;10.82;3.60;;;;;;;14.50;49.73;101560.19;5050103;28;20045;-62
2022/05/29 02:45:43;;;;;;;7.40;3.50;;;;;;;14.55;49.65;101564.25;4990588;28;20070;-62
2022/05/29 02:48:21;;;;;;;6.72;3.55;;;;;;;14.57;49.77;101559.59;5046073;28;20033;-63
2022/05/29 02:50:53;;;;;;;6.18;3.17;;;;;;;14.57;49.78;101559.59;5037596;28;20037;-63
2022/05/29 02:53:19;;;;;;;10.05;3.17;;;;;;;14.57;49.84;101551.47;5057839;28;20043;-62
2022/05/29 02:55:46;;;;;;;9.48;3.30;;;;;;;14.57;49.83;101550.63;5073665;28;20040;-63
2022/05/29 02:58:19;;;;;;;12.43;3.58;;;;;;;14.56;49.72;101547.06;5074415;28;20036;-62
2022/05/29 03:01:10;;;;;;;11.18;3.72;;;;;;;14.53;50.06;101550.00;5064610;28;20402;-62
2022/05/29 03:03:44;;;;;;;11.40;3.60;;;;;;;14.54;50.09;101549.00;5073705;28;20041;-62
2022/05/29 03:06:28;;;;;;;9.25;3.80;;;;;;;14.53;49.93;101547.28;5074340;28;20033;-64
2022/05/29 03:09:13;;;;;;;10.13;3.58;;;;;;;14.54;49.90;101550.84;5073990;28;20048;-62
2022/05/29 03:11:43;;;;;;;8.48;3.53;;;;;;;14.55;49.86;101550.75;5061408;28;20052;-61
2022/05/29 03:14:33;;;;;;;12.02;3.22;;;;;;;14.56;50.04;101547.06;5073675;28;20048;-62
2022/05/29 03:17:28;;;;;;;20.52;3.55;;;;;;;14.57;50.24;101547.91;5064942;28;20041;-61
2022/05/29 03:20:09;;;;;;;7.43;3.25;;;;;;;14.56;50.02;101544.34;5074005;28;20036;-61
2022/05/29 03:22:43;;;;;;;8.05;4.53;;;;;;;14.57;49.89;101551.47;5073669;28;20032;-61
2022/05/29 03:25:18;;;;;;;7.32;3.67;;;;;;;14.57;50.13;101540.66;5073580;28;20060;-61
2022/05/29 03:27:47;;;;;;;9.88;3.92;;;;;;;14.56;49.90;101544.34;5073565;28;20044;-62
2022/05/29 03:30:36;;;;;;;7.70;3.75;;;;;;;14.56;50.19;101543.50;5074046;28;20040;-61
2022/05/29 03:33:06;;;;;;;8.57;3.65;;;;;;;14.59;49.98;101543.25;5071851;28;20063;-61
2022/05/29 03:35:36;;;;;;;13.05;3.28;;;;;;;14.61;50.17;101544.00;5069640;28;20041;-62
2022/05/29 03:38:04;;;;;;;11.27;3.72;;;;;;;14.65;50.27;101545.47;5072639;28;20048;-61
2022/05/29 03:40:32;;;;;;;8.85;3.83;;;;;;;14.67;50.55;101543.53;5060934;28;20045;-62
2022/05/29 03:42:59;;;;;;;11.48;3.90;;;;;;;14.71;50.50;101546.84;5072939;28;20560;-62
2022/05/29 03:45:28;;;;;;;7.40;4.03;;;;;;;14.73;50.54;101550.31;5055354;28;20036;-61
2022/05/29 03:47:55;;;;;;;8.10;3.97;;;;;;;14.72;50.55;101548.56;5073162;28;20394;-62
2022/05/29 03:50:24;;;;;;;7.60;3.45;;;;;;;14.74;50.55;101543.91;5073599;28;20041;-62
2022/05/29 03:52:51;;;;;;;9.45;4.05;;;;;;;14.72;50.70;101538.63;5073022;28;20051;-63
2022/05/29 03:55:20;;;;;;;10.73;4.10;;;;;;;14.71;50.64;101542.31;5073381;28;20043;-63
2022/05/29 03:57:48;;;;;;;7.93;4.45;;;;;;;14.69;50.95;101540.69;5073337;28;20044;-63
2022/05/29 04:00:15;;;;;;;11.82;4.32;;;;;;;14.66;51.08;101540.94;5058562;28;20047;-63
2022/05/29 04:02:42;;;;;;;8.13;4.30;;;;;;;14.61;51.13;101539.44;5073509;28;20489;-64
2022/05/29 04:05:11;;;;;;;9.95;4.45;;;;;;;14.57;51.25;101540.66;5072985;28;20053;-63
2022/05/29 04:13:09;;;;;;;12.15;4.80;;;;;;;14.59;51.46;101529.75;5063349;28;20597;-63
2022/05/29 04:15:41;;;;;;;8.13;4.22;;;;;;;14.56;51.80;101528.13;5066874;28;20048;-64
2022/05/29 04:18:07;;;;;;;10.45;4.85;;;;;;;14.54;51.77;101524.69;5069622;28;20059;-64
2022/05/29 04:20:34;;;;;;;8.50;4.72;;;;;;;14.50;51.94;101528.59;5072939;28;20040;-65
2022/05/29 04:23:01;;;;;;;7.97;4.50;;;;;;;14.48;52.10;101527.00;5072583;28;20036;-64
2022/05/29 04:25:27;;;;;;;6.18;4.35;;;;;;;14.47;52.12;101534.25;5071937;28;20052;-64
2022/05/29 04:27:54;;;;;;;8.93;4.07;;;;;;;14.45;52.29;101525.41;5067623;28;20049;-64
2022/05/29 04:30:20;;;;;;;8.48;4.47;;;;;;;14.45;52.36;101528.09;5072447;28;20056;-63
2022/05/29 04:32:59;;;;;;;12.85;4.75;;;;;;;14.45;52.51;101538.03;5072574;28;20506;-64
2022/05/29 04:35:35;;;;;;;13.00;4.60;;;;;;;14.45;52.75;101528.09;5060111;28;20047;-63
2022/05/29 04:38:02;;;;;;;7.90;3.90;;;;;;;14.46;52.87;101521.72;5072370;28;20503;-63
2022/05/29 04:40:30;;;;;;;6.35;3.60;;;;;;;14.49;52.86;101531.44;5054864;28;20120;-64
2022/05/29 04:42:57;;;;;;;8.30;4.10;;;;;;;14.51;52.92;101530.34;5072452;28;20051;-63
2022/05/29 04:45:24;;;;;;;8.00;4.55;;;;;;;14.54;52.82;101529.22;5071010;28;20037;-63
2022/05/29 04:47:50;;;;;;;9.93;4.20;;;;;;;14.55;52.88;101528.25;5072072;28;20379;-63
2022/05/29 04:50:17;;;;;;;7.22;3.17;;;;;;;14.53;52.84;101506.75;5072886;28;20048;-63
2022/05/29 04:52:44;;;;;;;7.53;3.83;;;;;;;14.53;53.21;101516.69;5072723;28;20041;-64
2022/05/29 04:55:11;;;;;;;10.07;3.83;;;;;;;14.53;53.00;101512.16;5072409;28;20041;-62
2022/05/29 04:57:41;;;;;;;9.15;3.75;;;;;;;14.56;53.25;101514.63;5072459;28;20441;-63
2022/05/29 05:00:08;;;;;;;7.55;3.63;;;;;;;14.58;53.50;101507.25;5072422;28;20040;-62
2022/05/29 05:02:35;;;;;;;8.85;3.38;;;;;;;14.58;53.38;101506.38;5072116;28;20047;-62
2022/05/29 05:05:06;;;;;;;6.13;3.33;;;;;;;14.56;53.71;101505.66;5065726;28;20049;-62
2022/05/29 05:07:32;;;;;;;7.75;3.38;;;;;;;14.54;53.73;101503.06;5071820;28;20055;-63
2022/05/29 05:09:59;;;;;;;10.60;3.80;;;;;;;14.55;53.46;101503.94;5072430;28;20045;-63
2022/05/29 05:12:25;;;;;;;8.30;3.70;;;;;;;14.57;53.63;101501.97;5071724;28;20055;-63
2022/05/29 05:14:54;;;;;;;5.20;3.45;;;;;;;14.59;53.75;101497.31;5071893;28;20044;-63
2022/05/29 05:17:20;;;;;;;8.00;3.22;;;;;;;14.66;54.10;101503.09;5071726;28;20044;-62
2022/05/29 05:19:47;;;;;;;7.38;3.70;;;;;;;14.72;53.95;101497.22;5072135;28;20502;-62
2022/05/29 05:22:13;;;;;;;6.47;3.65;;;;;;;14.76;54.02;101496.00;5057717;28;20049;-62
2022/05/29 05:24:42;;;;;;;5.30;3.13;;;;;;;14.82;53.96;101493.66;5071130;28;20055;-62
2022/05/29 05:27:09;;;;;;;12.93;3.75;;;;;;;14.89;53.99;101491.38;5062689;28;20048;-62
2022/05/29 05:29:42;;;;;;;9.52;3.90;;;;;;;14.95;53.94;101496.28;5068095;28;20055;-62
2022/05/29 05:32:08;;;;;;;4.85;3.22;;;;;;;14.99;54.11;101481.53;5072007;28;20029;-63
2022/05/29 05:34:40;;;;;;;7.63;3.50;;;;;;;15.04;54.03;101486.59;5071959;28;20051;-63
2022/05/29 05:37:08;;;;;;;6.22;3.20;;;;;;;15.06;54.27;101484.63;5072154;28;20371;-63
2022/05/29 05:39:35;;;;;;;7.13;3.00;;;;;;;15.08;54.04;101490.75;5071948;28;20044;-63
2022/05/29 05:42:01;;;;;;;7.00;3.00;;;;;;;15.11;54.30;101488.69;5071242;28;20505;-63
2022/05/29 05:44:29;;;;;;;4.68;2.60;;;;;;;15.17;54.26;101493.59;5072157;28;20178;-63
2022/05/29 05:46:56;;;;;;;4.30;2.75;;;;;;;15.20;54.31;101503.31;5071840;28;20439;-63
2022/05/29 05:49:28;;;;;;;7.10;2.97;;;;;;;15.22;54.20;101504.06;5071919;28;20073;-63
2022/05/29 05:51:58;;;;;;;7.05;3.03;;;;;;;15.22;54.13;101512.16;5071357;28;20055;-63
2022/05/29 05:54:27;;;;;;;5.43;2.58;;;;;;;15.21;53.86;101510.44;5071634;28;20048;-63
2022/05/29 05:56:54;;;;;;;5.25;2.47;;;;;;;15.18;54.18;101508.84;5071367;28;20055;-63
2022/05/29 05:59:20;;;;;;;6.05;2.65;;;;;;;15.18;54.03;101500.72;5071565;28;20040;-63
2022/05/29 06:01:47;;;;;;;5.68;2.53;;;;;;;15.18;53.85;101503.44;5070952;28;20041;-63
2022/05/29 06:04:18;;;;;;;3.42;2.20;;;;;;;15.20;54.35;101501.47;5070150;28;20033;-63
2022/05/29 06:06:44;;;;;;;3.85;2.47;;;;;;;15.25;54.08;101510.06;5070701;28;20051;-63
2022/05/29 06:09:13;;;;;;;6.68;2.10;;;;;;;15.32;54.04;101517.69;5071648;28;20036;-62
2022/05/29 06:11:39;;;;;;;2.72;1.60;;;;;;;15.35;54.20;101514.75;5071259;28;20040;-62
2022/05/29 06:14:08;;;;;;;4.68;2.10;;;;;;;15.38;54.09;101507.25;5070696;28;20032;-62
2022/05/29 06:16:36;;;;;;;2.70;2.13;;;;;;;15.39;54.19;101502.69;5062720;28;20057;-62
2022/05/29 06:19:05;;;;;;;5.35;2.08;;;;;;;15.40;54.17;101513.41;5067894;28;20445;-62
2022/05/29 06:21:33;;;;;;;3.72;2.05;;;;;;;15.39;54.26;101508.97;5053457;28;20048;-62
2022/05/29 06:24:01;;;;;;;4.05;2.22;;;;;;;15.40;53.99;101507.97;5061081;28;20048;-63
2022/05/29 06:26:28;;;;;;;6.80;2.22;;;;;;;15.38;54.01;101500.97;5040588;28;20508;-63
2022/05/29 06:28:55;;;;;;;5.20;2.10;;;;;;;15.36;54.12;101505.66;5073244;28;20081;-63
2022/05/29 06:31:22;;;;;;;4.78;2.30;;;;;;;15.40;54.04;101512.53;5074011;28;20036;-63
2022/05/29 06:33:51;;;;;;;3.70;2.58;;;;;;;15.41;54.18;101500.72;5071053;28;20501;-63
2022/05/29 06:36:23;;;;;;;4.93;2.33;;;;;;;15.41;54.30;101515.13;5071268;28;20044;-62
2022/05/29 06:38:52;;;;;;;6.47;2.33;;;;;;;15.40;54.42;101510.69;5072542;28;20098;-62
2022/05/29 06:41:21;;;;;;;5.05;2.53;;;;;;;15.39;54.52;101514.38;5056297;28;20063;-62
2022/05/29 06:43:50;;;;;;;6.95;2.95;;;;;;;15.42;54.48;101518.69;5073657;28;20041;-63
2022/05/29 06:46:31;;;;;;;4.05;2.42;;;;;;;15.43;54.57;101521.28;5059425;28;20049;-62
2022/05/29 06:48:57;;;;;;;4.85;3.15;;;;;;;15.44;54.33;101520.28;5068756;28;20394;-61
2022/05/29 06:51:24;;;;;;;9.27;2.83;;;;;;;15.45;54.68;101516.59;5074389;28;20033;-62
2022/05/29 06:53:56;;;;;;;4.43;2.08;;;;;;;15.46;54.62;101517.44;5074532;28;20033;-62
2022/05/29 06:56:23;;;;;;;3.97;2.13;;;;;;;15.45;54.25;101508.47;5068262;28;20067;-61
2022/05/29 06:58:50;;;;;;;4.28;2.10;;;;;;;15.43;54.49;101513.16;5073848;28;20047;-61
2022/05/29 07:07:01;;;;;;;5.90;2.25;;;;;;;15.50;54.49;101513.50;5055657;28;20141;-62
2022/05/29 07:09:37;;;;;;;5.25;2.22;;;;;;;15.53;54.67;101510.56;5073354;28;20068;-61
2022/05/29 07:12:14;;;;;;;3.28;2.17;;;;;;;15.57;54.47;101512.03;5055765;28;20494;-61
2022/05/29 07:15:00;;;;;;;4.65;2.63;;;;;;;15.61;54.56;101508.16;5073769;28;20048;-61
2022/05/29 07:17:27;;;;;;;5.20;3.33;;;;;;;15.69;54.62;101507.50;5070335;28;20067;-62
2022/05/29 07:19:54;;;;;;;9.20;3.03;;;;;;;15.74;54.61;101505.28;5055321;28;20457;-62
2022/05/29 07:22:21;;;;;;;5.45;2.88;;;;;;;15.78;54.72;101504.06;5072925;28;20049;-62
2022/05/29 07:24:49;;;;;;;5.45;3.05;;;;;;;15.84;54.74;101503.53;5055445;28;20387;-61
2022/05/29 07:27:17;;;;;;;5.05;3.05;;;;;;;15.89;55.10;101496.75;5073331;28;20041;-62
2022/05/29 07:29:46;;;;;;;6.63;3.42;;;;;;;15.94;55.13;101504.50;5054803;28;20452;-62
2022/05/29 07:32:12;;;;;;;8.45;4.00;;;;;;;15.98;54.90;101502.41;5073979;28;20041;-61
2022/05/29 07:34:46;;;;;;;8.10;3.90;;;;;;;16.02;55.13;101495.72;5074516;28;20036;-62
2022/05/29 07:37:14;;;;;;;5.97;3.90;;;;;;;16.12;55.48;101499.41;5074914;28;20047;-62
2022/05/29 07:39:46;;;;;;;7.55;3.85;;;;;;;16.22;55.31;101497.63;5075049;28;20045;-61
2022/05/29 07:45:00;;;;;;;6.70;3.70;;;;;;;16.43;55.34;101493.13;5073943;28;20051;-60
2022/05/29 07:47:27;;;;;;;6.30;3.58;;;;;;;16.55;55.32;101487.63;5073586;28;20059;-61
2022/05/29 07:49:58;;;;;;;5.78;3.92;;;;;;;16.67;55.43;101497.47;5060024;28;20048;-61
2022/05/29 07:52:25;;;;;;;6.45;3.70;;;;;;;16.76;55.43;101483.97;5074794;28;20386;-61
2022/05/29 07:54:53;;;;;;;7.03;3.90;;;;;;;16.86;54.91;101496.72;5060187;28;20049;-61
2022/05/29 07:57:20;;;;;;;6.25;3.78;;;;;;;16.95;55.10;101485.91;5071916;28;20047;-61
2022/05/29 07:59:46;;;;;;;7.78;4.32;;;;;;;17.04;54.97;101493.25;5054570;28;20483;-61
2022/05/29 08:02:13;;;;;;;7.55;4.22;;;;;;;17.07;54.91;101492.13;5072288;28;20052;-61
2022/05/29 08:04:42;;;;;;;6.78;3.58;;;;;;;17.05;54.63;101484.13;5072474;28;20044;-61
2022/05/29 08:07:10;;;;;;;6.50;3.28;;;;;;;17.01;54.51;101490.81;5069768;28;20041;-61
2022/05/29 08:09:37;;;;;;;5.38;3.53;;;;;;;17.00;54.31;101494.53;5043213;28;20052;-61
2022/05/29 08:12:04;;;;;;;4.72;3.03;;;;;;;17.00;54.45;101489.09;5072015;28;20048;-61
2022/05/29 08:14:34;;;;;;;8.23;3.65;;;;;;;17.00;54.51;101491.81;5054725;28;20063;-61
2022/05/29 08:17:00;;;;;;;9.60;3.03;;;;;;;17.02;54.13;101486.25;5073596;28;20052;-61
2022/05/29 08:19:27;;;;;;;6.97;3.20;;;;;;;17.04;54.06;101487.81;5059055;28;20051;-60
2022/05/29 08:21:53;;;;;;;5.60;2.90;;;;;;;17.05;54.00;101489.53;5072834;28;20041;-62
2022/05/29 08:33:05;;;;;;;5.90;3.33;;;;;;;17.06;53.84;101496.69;5071920;28;20460;-62
2022/05/29 08:35:34;;;;;;;6.15;2.78;;;;;;;17.00;53.68;101480.94;5055182;28;20048;-61
2022/05/29 08:38:02;;;;;;;7.30;2.88;;;;;;;16.96;54.15;101481.34;5073095;28;20043;-61
2022/05/29 08:40:31;;;;;;;5.80;2.25;;;;;;;16.95;53.92;101485.91;5073377;28;20051;-61
2022/05/29 08:42:58;;;;;;;4.80;2.42;;;;;;;16.98;53.46;101473.94;5072436;28;20040;-61
2022/05/29 08:45:30;;;;;;;3.47;1.50;;;;;;;17.02;53.62;101483.53;5072916;28;20032;-60
2022/05/29 08:47:58;;;;;;;3.33;1.40;;;;;;;17.05;53.41;101486.84;5055237;28;20491;-60
2022/05/29 08:50:35;;;;;;;2.60;1.40;;;;;;;17.09;53.33;101482.00;5073177;28;20116;-61
2022/05/29 08:53:02;;;;;;;2.55;1.20;;;;;;;17.13;53.03;101486.19;5072752;28;20495;-60
2022/05/29 08:55:58;;;;;;;4.32;1.60;;;;;;;17.17;53.63;101484.91;5069581;28;20039;-61
2022/05/29 08:58:50;;;;;;;2.88;1.48;;;;;;;17.20;53.14;101475.66;5072562;28;20396;-61
2022/05/29 09:01:23;;;;;;;3.55;1.30;;;;;;;17.19;53.26;101471.22;5028051;28;20041;-62
2022/05/29 09:04:01;;;;;;;4.95;1.42;;;;;;;17.24;53.39;101471.66;5071382;28;20078;-62
2022/05/29 09:06:47;;;;;;;2.75;1.27;;;;;;;17.32;53.23;101472.69;5071518;28;20041;-61
2022/05/29 09:09:13;;;;;;;;;;;;;;;17.37;53.45;101467.72;5071990;28;20040;-63
2022/05/29 09:11:51;;;;;;;3.88;1.52;;;;;;;17.42;53.08;101460.00;5071341;28;19935;-62
2022/05/29 09:14:55;;;;;;;6.97;1.80;;;;;;;17.40;52.80;101462.00;5071063;28;20039;-62
2022/05/29 09:17:35;;;;;;;4.40;1.90;;;;;;;17.45;53.10;101461.59;5070815;28;20060;-60
2022/05/29 09:20:18;;;;;;;5.18;1.90;;;;;;;17.55;53.17;101457.03;5072251;28;20040;-61
2022/05/29 09:22:45;;;;;;;5.95;2.30;;;;;;;17.61;52.62;101453.75;5072314;28;20041;-60
2022/05/29 09:25:23;;;;;;;6.90;2.50;;;;;;;17.68;52.78;101454.94;5072701;28;20055;-60
2022/05/29 09:27:49;;;;;;;5.25;2.17;;;;;;;17.75;52.50;101450.69;5068265;28;20048;-60
2022/05/29 09:30:17;;;;;;;6.63;2.40;;;;;;;17.83;52.42;101449.13;5072588;28;20036;-60
2022/05/29 09:32:49;;;;;;;5.30;2.20;;;;;;;17.92;52.48;101453.72;5072109;28;20037;-60
2022/05/29 09:35:25;;;;;;;6.55;2.50;;;;;;;17.95;52.17;101446.16;5072115;28;20052;-61
2022/05/29 09:37:59;;;;;;;4.40;2.80;;;;;;;17.96;51.89;101447.88;5063093;28;20052;-59
2022/05/29 09:40:31;;;;;;;4.20;2.08;;;;;;;17.97;52.09;101440.56;5058988;28;20399;-60
2022/05/29 09:43:23;;;;;;;5.00;2.25;;;;;;;17.98;52.08;101432.28;5071814;28;20059;-59
2022/05/29 09:45:55;;;;;;;4.50;2.08;;;;;;;18.06;52.11;101434.28;5051956;28;20041;-60
2022/05/29 09:51:11;;;;;;;7.20;2.30;;;;;;;18.25;52.03;101427.97;5072025;28;20036;-62
2022/05/29 09:53:47;;;;;;;8.45;2.20;;;;;;;18.39;51.92;101424.81;5071772;28;20047;-60
2022/05/29 09:56:29;;;;;;;7.53;3.38;;;;;;;18.54;51.52;101436.09;5046100;28;20103;-59
2022/05/29 09:59:05;;;;;;;4.90;2.10;;;;;;;18.67;51.45;101431.25;5074922;28;20046;-61
2022/05/29 10:01:36;;;;;;;7.82;3.13;;;;;;;18.77;51.19;101423.91;5076290;28;20066;-62
2022/05/29 10:04:11;;;;;;;3.17;2.08;;;;;;;18.81;50.85;101419.91;5058581;28;20045;-58
2022/05/29 10:06:42;;;;;;;4.50;1.85;;;;;;;18.83;50.91;101420.59;5076447;28;20087;-60
2022/05/29 10:09:18;;;;;;;6.22;1.80;;;;;;;18.84;51.08;101424.19;5076878;28;20435;-60
2022/05/29 10:11:51;;;;;;;9.77;2.60;;;;;;;18.85;50.82;101423.19;5076461;28;20045;-61
2022/05/29 10:14:37;;;;;;;6.45;2.28;;;;;;;18.87;50.43;101432.91;5056923;28;20518;-59
2022/05/29 10:17:27;;;;;;;6.15;1.80;;;;;;;18.91;50.73;101420.72;5069805;28;20163;-60
2022/05/29 10:19:53;;;;;;;4.65;2.00;;;;;;;18.97;50.35;101427.44;5045795;28;20051;-66
2022/05/29 10:22:26;;;;;;;3.35;1.90;;;;;;;19.00;50.70;101417.09;5055888;28;20058;-66
2022/05/29 10:24:55;;;;;;;2.80;1.40;;;;;;;19.15;50.30;101412.00;5064486;28;20047;-59
2022/05/29 10:27:37;;;;;;;4.13;2.00;;;;;;;19.28;49.94;101403.50;5070388;28;20047;-61
2022/05/29 10:30:12;;;;;;;3.67;1.95;;;;;;;19.33;49.39;101401.19;5053006;28;20479;-60
2022/05/29 10:32:42;;;;;;;3.92;2.00;;;;;;;19.33;49.66;101414.81;5068446;28;20045;-60
2022/05/29 10:35:31;;;;;;;5.50;2.10;;;;;;;19.32;49.58;101413.06;5061410;28;20044;-60
2022/05/29 10:38:15;;;;;;;7.50;1.80;;;;;;;19.29;49.57;101416.97;5074898;28;20071;-60
2022/05/29 10:40:43;;;;;;;3.55;0.93;;;;;;;19.22;49.38;101425.88;5066611;28;20522;-60
2022/05/29 10:43:09;;;;;;;2.22;0.82;;;;;;;19.04;49.65;101417.66;5070951;28;20072;-59
2022/05/29 10:45:46;;;;;;;4.03;0.70;;;;;;;18.83;49.47;101422.47;5075258;28;20040;-60
2022/05/29 10:48:28;;;;;;;2.50;0.68;;;;;;;18.66;49.24;101424.09;5075727;28;20498;-60
2022/05/29 10:51:14;;;;;;;2.33;0.77;;;;;;;18.55;49.36;101424.19;5065871;28;20441;-60
2022/05/29 10:54:02;;;;;;;;;;;;;;;18.45;49.27;101420.66;5069982;28;20052;-59
2022/05/29 10:57:07;;;;;;;2.15;1.00;;;;;;;18.34;49.82;101422.53;5068008;28;20366;-59
2022/05/29 10:59:48;;;;;;;1.60;1.23;;;;;;;18.32;49.52;101416.38;5055666;28;20041;-59
2022/05/29 11:05:39;;;;;;;3.72;0.95;;;;;;;18.18;50.26;101414.09;5074719;28;20199;-59
2022/05/29 11:08:21;;;;;;;1.92;1.00;;;;;;;18.17;50.02;101403.38;5074854;28;20059;-60
2022/05/29 11:11:10;;;;;;;3.03;1.40;;;;;;;18.17;50.42;101406.09;5061426;28;20398;-58
2022/05/29 11:14:07;;;;;;;2.67;1.60;;;;;;;18.20;50.95;101401.22;5043437;28;20478;-60
2022/05/29 11:17:00;;;;;;;3.53;1.80;;;;;;;18.26;51.01;101405.22;5018921;28;20398;-59
2022/05/29 11:19:51;;;;;;;1.73;0.90;;;;;;;18.27;50.74;101393.34;5075034;28;20040;-59
2022/05/29 11:22:30;;;;;;;4.28;2.10;;;;;;;18.34;51.03;101399.91;5062821;28;20397;-60
2022/05/29 11:25:11;;;;;;;5.70;3.17;;;;;;;18.41;50.81;101393.75;5060901;28;20036;-59
2022/05/29 11:27:52;;;;;;;2.85;1.10;;;;;;;18.49;51.33;101403.03;5075252;28;20040;-59
2022/05/29 11:30:25;;;;;;;3.78;1.50;;;;;;;18.59;51.42;101402.03;5062459;28;20086;-59
2022/05/29 11:33:28;;;;;;;2.13;1.05;;;;;;;18.65;51.33;101395.19;5075047;28;20140;-60
2022/05/29 11:36:32;;;;;;;5.88;1.13;;;;;;;18.62;50.89;101396.31;5074632;28;20059;-59
2022/05/29 11:39:09;;;;;;;1.45;0.40;;;;;;;18.51;50.75;101391.00;5063433;28;20047;-60
2022/05/29 11:41:39;;;;;;;1.83;0.60;;;;;;;18.38;50.57;101388.59;5074346;28;20040;-59
2022/05/29 11:44:31;;;;;;;1.25;0.50;;;;;;;18.29;51.03;101389.47;5074287;28;20048;-59
2022/05/29 11:53:01;;;;;;;1.25;0.55;;;;;;;18.27;51.26;101380.59;5074568;28;20516;-59
2022/05/29 11:55:35;;;;;;;1.83;0.70;;;;;;;18.30;51.37;101379.44;5073987;28;20486;-60
2022/05/29 11:58:07;;;;;;;0.90;0.60;;;;;;;18.33;51.65;101371.00;5074418;28;20044;-59
2022/05/29 12:00:43;;;;;;;2.30;0.75;;;;;;;18.36;51.98;101370.72;5056365;28;20044;-60
2022/05/29 12:03:31;;;;;;;2.72;1.13;;;;;;;18.40;51.68;101366.69;5073955;28;20517;-60
2022/05/29 12:06:11;;;;;;;2.78;1.05;;;;;;;18.46;51.88;101367.97;5061391;28;20052;-60
2022/05/29 12:09:10;;;;;;;4.03;1.30;;;;;;;18.56;52.17;101363.34;5059646;28;20112;-59
2022/05/29 12:11:47;;;;;;;3.95;1.30;;;;;;;18.67;52.19;101360.50;5068599;28;20041;-61
2022/05/29 12:14:51;;;;;;;2.65;1.30;;;;;;;18.75;51.91;101363.34;5073042;28;20501;-60
2022/05/29 12:17:28;;;;;;;2.85;1.67;;;;;;;18.88;52.33;101361.13;5069716;28;20048;-62
2022/05/29 12:20:14;;;;;;;5.80;2.05;;;;;;;18.98;52.31;101358.38;5062413;28;20053;-61
2022/05/29 12:22:56;;;;;;;4.43;1.88;;;;;;;18.99;51.95;101365.53;5072859;28;20049;-61
2022/05/29 12:25:49;;;;;;;5.57;1.92;;;;;;;18.90;51.90;101367.28;5072281;28;20048;-62
2022/05/29 12:28:28;;;;;;;2.42;1.10;;;;;;;18.78;51.65;101360.31;5056819;28;20044;-62
2022/05/29 12:30:56;;;;;;;3.05;0.88;;;;;;;18.70;51.83;101354.78;5072526;28;20037;-63